Time;durP1;ratioP1;P1;durP2;ratioP2;P2;SDS_P1;SDS_P2;PMS_P1;PMS_P2;Temp;Humidity;BMP_temperature;BMP_pressure;BME280_temperature;BME280_humidity;BME280_pressure;Samples;Min_cycle;Max_cycle;Signal;HPM_P1;HPM_P2
2021/11/12 00:03:38;;;;;;;75.50;11.65;;;;;;;1.50;100.00;95449.91;5057021;23;20422;-62
2021/11/12 00:14:23;;;;;;;33.08;10.20;;;;;;;1.48;100.00;95433.47;5059553;28;20492;-61
2021/11/12 00:16:48;;;;;;;;;;;;;;;1.50;100.00;95426.97;5058410;28;20036;-61
2021/11/12 00:19:14;;;;;;;39.58;10.55;;;;;;;1.52;100.00;95429.41;5057572;28;19909;-58
2021/11/12 00:21:45;;;;;;;55.72;10.73;;;;;;;1.54;100.00;95422.13;5043779;28;20062;-62
2021/11/12 00:24:14;;;;;;;77.82;11.70;;;;;;;1.57;100.00;95424.34;5024421;28;20032;-62
2021/11/12 00:26:42;;;;;;;92.32;11.85;;;;;;;1.58;100.00;95418.06;5055942;28;20048;-62
2021/11/12 00:29:14;;;;;;;93.65;11.73;;;;;;;1.59;100.00;95409.94;5055244;28;20119;-62
2021/11/12 00:31:48;;;;;;;58.20;12.55;;;;;;;1.60;100.00;95410.75;5055910;28;20028;-62
2021/11/12 00:34:39;;;;;;;94.43;12.90;;;;;;;1.60;100.00;95406.28;5053659;28;20025;-62
2021/11/12 00:39:45;;;;;;;60.33;12.63;;;;;;;1.62;100.00;95400.78;5039998;28;20024;-62
2021/11/12 00:42:22;;;;;;;83.13;11.52;;;;;;;1.61;100.00;95402.63;5061772;28;21409;-62
2021/11/12 00:47:27;;;;;;;81.85;12.52;;;;;;;1.63;100.00;95384.78;5060901;28;20510;-61
2021/11/12 00:50:10;;;;;;;90.63;12.43;;;;;;;1.64;100.00;95394.31;5052010;28;20036;-62
2021/11/12 00:55:04;;;;;;;52.38;12.05;;;;;;;1.63;100.00;95400.63;5060353;28;20040;-62
2021/11/12 00:57:40;;;;;;;102.40;12.00;;;;;;;1.62;100.00;95398.97;5060429;28;20146;-62
2021/11/12 01:00:09;;;;;;;129.75;13.23;;;;;;;1.62;100.00;95398.97;5053050;28;20499;-62
2021/11/12 01:02:35;;;;;;;77.90;11.70;;;;;;;1.64;100.00;95393.50;5053908;28;20049;-63
2021/11/12 01:05:04;;;;;;;70.03;11.60;;;;;;;1.65;100.00;95401.22;5020745;28;20031;-62
2021/11/12 01:07:32;;;;;;;42.13;11.35;;;;;;;1.66;100.00;95391.47;5019799;28;20467;-62
2021/11/12 01:09:58;;;;;;;62.40;11.93;;;;;;;1.65;100.00;95385.38;5033654;28;20032;-60
2021/11/12 01:12:24;;;;;;;36.03;10.77;;;;;;;1.67;100.00;95386.00;5039084;28;20422;-62
2021/11/12 01:14:50;;;;;;;127.68;12.80;;;;;;;1.66;100.00;95381.72;5034900;28;20544;-61
2021/11/12 01:17:15;;;;;;;70.00;11.30;;;;;;;1.64;100.00;95383.75;5053018;28;20114;-62
2021/11/12 01:19:43;;;;;;;80.60;11.90;;;;;;;1.63;100.00;95379.50;5051822;28;20399;-61
2021/11/12 01:22:12;;;;;;;104.50;12.43;;;;;;;1.65;100.00;95377.47;5042011;28;20031;-61
2021/11/12 01:24:38;;;;;;;41.55;11.10;;;;;;;1.65;100.00;95372.19;5051578;28;20078;-62
2021/11/12 01:27:09;;;;;;;45.92;9.55;;;;;;;1.66;100.00;95375.63;5054604;28;20031;-59
2021/11/12 01:29:35;;;;;;;118.93;12.30;;;;;;;1.63;100.00;95374.22;5056556;28;20033;-59
2021/11/12 01:32:20;;;;;;;113.88;11.63;;;;;;;1.62;100.00;95359.38;5062472;28;20063;-60
2021/11/12 01:34:47;;;;;;;83.35;10.23;;;;;;;1.63;100.00;95362.84;5039287;28;20029;-62
2021/11/12 01:37:19;;;;;;;103.95;11.15;;;;;;;1.62;100.00;95369.13;5041612;28;20021;-60
2021/11/12 01:39:52;;;;;;;32.75;9.15;;;;;;;1.63;100.00;95368.94;5036061;28;20035;-59
2021/11/12 01:42:19;;;;;;;102.30;11.70;;;;;;;1.63;100.00;95365.47;5051260;28;20028;-62
2021/11/12 01:44:48;;;;;;;82.85;10.45;;;;;;;1.61;100.00;95363.03;5020400;28;20033;-58
2021/11/12 01:49:57;;;;;;;30.35;8.77;;;;;;;1.62;100.00;95354.09;5053138;28;20047;-59
2021/11/12 01:52:32;;;;;;;67.15;10.52;;;;;;;1.63;100.00;95353.09;5053461;28;20021;-59
2021/11/12 01:55:05;;;;;;;154.25;12.02;;;;;;;1.65;100.00;95345.78;5038252;28;20442;-61
2021/11/12 02:00:20;;;;;;;192.73;12.65;;;;;;;1.61;100.00;95335.81;5053492;28;20051;-61
2021/11/12 02:02:46;;;;;;;49.17;9.63;;;;;;;1.60;100.00;95342.09;5053390;28;20048;-64
2021/11/12 02:05:12;;;;;;;33.90;8.70;;;;;;;1.59;100.00;95328.09;5021721;28;20028;-63
2021/11/12 02:07:39;;;;;;;94.18;10.30;;;;;;;1.59;100.00;95332.56;5056064;28;20028;-60
2021/11/12 02:10:16;;;;;;;123.53;11.32;;;;;;;1.56;100.00;95330.34;5000934;28;20405;-61
2021/11/12 02:15:38;;;;;;;103.50;10.82;;;;;;;1.54;100.00;95322.63;5054100;28;20032;-61
2021/11/12 02:18:12;;;;;;;128.02;11.55;;;;;;;1.52;100.00;95313.25;5062373;28;20036;-63
2021/11/12 02:20:57;;;;;;;157.02;11.52;;;;;;;1.48;100.00;95304.94;5064302;28;20032;-63
2021/11/12 02:23:29;;;;;;;128.38;11.20;;;;;;;1.45;100.00;95306.16;5051999;28;20024;-62
2021/11/12 02:25:55;;;;;;;188.23;12.00;;;;;;;1.43;100.00;95302.13;5037897;28;20021;-64
2021/11/12 02:28:25;;;;;;;97.25;10.43;;;;;;;1.39;100.00;95287.69;5035356;28;20024;-60
2021/11/12 02:30:53;;;;;;;148.65;11.65;;;;;;;1.41;100.00;95290.91;5039776;28;20025;-61
2021/11/12 02:33:24;;;;;;;148.60;11.00;;;;;;;1.37;100.00;95292.34;5053525;28;20033;-61
2021/11/12 02:36:10;;;;;;;109.72;10.45;;;;;;;1.38;100.00;95293.97;5053275;28;20082;-63
2021/11/12 02:38:42;;;;;;;130.20;10.65;;;;;;;1.37;100.00;95287.06;5038812;28;20029;-62
2021/11/12 02:41:14;;;;;;;59.40;10.05;;;;;;;1.38;100.00;95289.50;5034024;28;20029;-61
2021/11/12 02:43:42;;;;;;;20.55;8.40;;;;;;;1.38;100.00;95288.69;5024705;28;20032;-64
2021/11/12 02:46:09;;;;;;;48.83;8.88;;;;;;;1.38;100.00;95286.88;5042655;28;20029;-63
2021/11/12 02:48:40;;;;;;;17.83;7.80;;;;;;;1.38;100.00;95284.22;5058381;28;20025;-62
2021/11/12 02:51:08;;;;;;;56.30;8.80;;;;;;;1.36;100.00;95288.91;5051948;28;20025;-64
2021/11/12 02:53:38;;;;;;;27.63;8.18;;;;;;;1.34;100.00;95283.03;5053677;28;20029;-64
2021/11/12 02:56:08;;;;;;;53.20;8.98;;;;;;;1.34;100.00;95275.09;5034462;28;20108;-63
2021/11/12 02:58:34;;;;;;;26.58;8.25;;;;;;;1.33;100.00;95276.13;5060367;28;20047;-63
2021/11/12 03:01:02;;;;;;;37.25;8.10;;;;;;;1.31;100.00;95272.88;5059032;28;20031;-64
2021/11/12 03:03:28;;;;;;;40.47;8.48;;;;;;;1.31;100.00;95278.16;5055284;28;20178;-64
2021/11/12 03:05:53;;;;;;;25.75;8.27;;;;;;;1.29;100.00;95277.53;5040599;28;20383;-62
2021/11/12 03:08:22;;;;;;;81.22;9.77;;;;;;;1.24;100.00;95271.25;5026590;28;20024;-64
2021/11/12 03:10:51;;;;;;;64.03;9.00;;;;;;;1.20;100.00;95268.22;5038791;28;20033;-65
2021/11/12 03:13:19;;;;;;;28.05;7.63;;;;;;;1.19;100.00;95271.84;5055593;28;20020;-64
2021/11/12 03:15:44;;;;;;;31.65;7.95;;;;;;;1.19;100.00;95278.94;5041601;28;20021;-62
2021/11/12 03:18:10;;;;;;;18.77;8.43;;;;;;;1.16;100.00;95267.78;5056794;28;20036;-61
2021/11/12 03:20:38;;;;;;;43.10;8.23;;;;;;;1.16;100.00;95275.69;5026206;28;20180;-62
2021/11/12 03:23:12;;;;;;;49.50;8.00;;;;;;;1.16;100.00;95266.97;5057383;28;20025;-59
2021/11/12 03:25:52;;;;;;;50.58;8.30;;;;;;;1.12;100.00;95271.03;5043065;28;20032;-63
2021/11/12 04:00:33;;;;;;;34.55;7.75;;;;;;;0.95;100.00;95275.06;5060484;28;20039;-62
2021/11/12 05:11:46;;;;;;;12.65;5.25;;;;;;;0.61;100.00;95273.34;5012382;28;20032;-64
2021/11/12 05:44:12;;;;;;;66.82;6.43;;;;;;;0.49;100.00;95281.03;5011733;28;20527;-62
2021/11/12 05:56:59;;;;;;;48.03;5.82;;;;;;;0.52;100.00;95262.16;5036946;28;20037;-64
2021/11/12 05:59:25;;;;;;;120.75;7.35;;;;;;;0.51;100.00;95261.34;5015515;28;20034;-64
2021/11/12 06:01:52;;;;;;;51.45;6.03;;;;;;;0.51;100.00;95256.09;5017184;28;20036;-61
2021/11/12 06:04:17;;;;;;;42.97;5.70;;;;;;;0.50;100.00;95254.47;5070846;22;20075;-67
2021/11/12 06:06:43;;;;;;;40.80;6.00;;;;;;;0.48;100.00;95251.22;5068664;28;20032;-67
2021/11/12 06:09:11;;;;;;;75.15;5.57;;;;;;;0.47;100.00;95252.22;5054540;28;20020;-67
2021/11/12 06:11:37;;;;;;;13.02;4.30;;;;;;;0.45;100.00;95254.25;5070753;28;20032;-66
2021/11/12 06:14:04;;;;;;;96.53;6.40;;;;;;;0.43;100.00;95252.81;5062546;28;20078;-67
2021/11/12 06:16:39;;;;;;;71.55;5.93;;;;;;;0.43;100.00;95255.44;5058771;28;20017;-67
2021/11/12 06:19:04;;;;;;;69.03;5.13;;;;;;;0.41;100.00;95250.38;5058646;28;20057;-67
2021/11/12 06:21:30;;;;;;;82.95;6.28;;;;;;;0.40;100.00;95253.22;5057300;28;20068;-67
2021/11/12 06:23:59;;;;;;;53.90;5.65;;;;;;;0.39;100.00;95257.66;5053453;28;20033;-67
2021/11/12 06:26:24;;;;;;;37.80;5.07;;;;;;;0.38;100.00;95258.69;5038697;28;20029;-67
2021/11/12 06:28:50;;;;;;;24.52;5.15;;;;;;;0.38;100.00;95260.50;5050285;28;20016;-67
2021/11/12 06:31:19;;;;;;;35.65;5.10;;;;;;;0.35;100.00;95267.00;5035435;28;20152;-67
2021/11/12 06:33:47;;;;;;;8.60;4.43;;;;;;;0.36;100.00;95271.25;5060321;28;20538;-67
2021/11/12 06:36:12;;;;;;;30.13;4.55;;;;;;;0.36;100.00;95270.44;5037627;28;20025;-67
2021/11/12 06:38:38;;;;;;;26.10;4.88;;;;;;;0.36;100.00;95271.25;5050991;28;20032;-67
2021/11/12 06:41:09;;;;;;;8.77;4.65;;;;;;;0.36;100.00;95276.53;5076378;28;20475;-67
2021/11/12 06:51:48;;;;;;;29.45;5.20;;;;;;;0.40;100.00;95261.13;5064114;28;20027;-67
2021/11/12 06:54:19;;;;;;;41.85;5.03;;;;;;;0.41;100.00;95254.84;5048637;28;20117;-66
2021/11/12 06:56:45;;;;;;;26.48;5.07;;;;;;;0.43;100.00;95261.53;5059382;28;20459;-65
2021/11/12 06:59:10;;;;;;;23.40;4.82;;;;;;;0.46;100.00;95263.78;5046520;28;20039;-66
2021/11/12 07:01:35;;;;;;;18.70;4.93;;;;;;;0.42;100.00;95259.91;5048723;28;20501;-67
2021/11/12 07:04:01;;;;;;;33.17;5.57;;;;;;;0.44;100.00;95267.63;5076963;28;20089;-67
2021/11/12 07:06:27;;;;;;;23.92;4.78;;;;;;;0.47;100.00;95262.78;5076060;28;20108;-67
2021/11/12 07:08:52;;;;;;;25.23;4.68;;;;;;;0.47;100.00;95257.50;5056204;28;20039;-64
2021/11/12 07:11:18;;;;;;;24.40;4.45;;;;;;;0.46;100.00;95261.16;5051801;28;20058;-68
2021/11/12 07:13:44;;;;;;;36.97;5.28;;;;;;;0.47;100.00;95259.31;5058334;28;20025;-66
2021/11/12 07:16:12;;;;;;;14.73;4.40;;;;;;;0.50;100.00;95267.63;5075113;28;20016;-66
2021/11/12 07:18:37;;;;;;;21.65;4.65;;;;;;;0.50;100.00;95270.28;5053980;28;20040;-68
2021/11/12 07:21:03;;;;;;;15.70;4.10;;;;;;;0.49;100.00;95268.66;5080506;28;20028;-67
2021/11/12 07:23:28;;;;;;;16.13;4.18;;;;;;;0.49;100.00;95260.75;5056360;28;20938;-68
2021/11/12 07:25:55;;;;;;;11.32;4.40;;;;;;;0.50;100.00;95259.72;5073984;28;20055;-68
2021/11/12 07:28:23;;;;;;;14.15;4.47;;;;;;;0.51;100.00;95269.25;5070887;28;20033;-68
2021/11/12 07:30:49;;;;;;;23.38;4.53;;;;;;;0.52;100.00;95262.97;5056402;28;20027;-68
2021/11/12 07:33:15;;;;;;;19.25;4.45;;;;;;;0.54;100.00;95263.63;5069972;28;20020;-68
2021/11/12 07:38:45;;;;;;;29.10;5.75;;;;;;;0.61;100.00;95258.34;5075252;28;20039;-66
2021/11/12 07:49:05;;;;;;;35.63;5.38;;;;;;;0.76;100.00;95255.53;5055927;28;20107;-67
2021/11/12 07:51:30;;;;;;;52.33;5.55;;;;;;;0.78;100.00;95246.44;5071229;28;20028;-68
2021/11/12 07:53:56;;;;;;;21.77;4.65;;;;;;;0.83;100.00;95240.56;5052231;28;20017;-68
2021/11/12 07:56:23;;;;;;;38.80;5.18;;;;;;;0.84;100.00;95244.81;5072349;28;20024;-68
2021/11/12 07:58:50;;;;;;;25.38;5.35;;;;;;;0.84;100.00;95242.16;5038965;28;20033;-65
2021/11/12 08:01:16;;;;;;;27.55;5.43;;;;;;;0.87;100.00;95236.53;5054634;28;20033;-67
2021/11/12 08:03:44;;;;;;;12.10;4.63;;;;;;;0.90;100.00;95230.84;5052807;28;20051;-68
2021/11/12 08:06:13;;;;;;;7.53;4.47;;;;;;;0.91;100.00;95231.66;5038940;28;20017;-67
2021/11/12 08:08:48;;;;;;;23.30;5.32;;;;;;;0.93;100.00;95226.97;5072953;28;20450;-67
2021/11/12 08:11:16;;;;;;;11.20;5.10;;;;;;;0.99;100.00;95220.91;5051832;28;20494;-67
2021/11/12 08:13:56;;;;;;;17.48;5.28;;;;;;;1.06;100.00;95219.06;5058091;28;20082;-67
2021/11/12 08:19:09;;;;;;;13.10;5.20;;;;;;;1.20;100.00;95225.19;5071289;28;20031;-68
2021/11/12 08:21:48;;;;;;;22.27;5.80;;;;;;;1.26;100.00;95224.34;5058670;28;20082;-68
2021/11/12 08:24:32;;;;;;;17.55;5.72;;;;;;;1.32;100.00;95224.34;5056914;28;20032;-67
2021/11/12 08:43:19;;;;;;;49.10;7.13;;;;;;;-144.43;100.00;64487.81;5065666;28;20059;-66
2021/11/12 08:48:21;;;;;;;19.27;6.43;;;;;;;-144.43;100.00;64487.81;5055181;28;20037;-66
2021/11/12 08:50:46;;;;;;;45.70;7.20;;;;;;;-144.43;100.00;64487.81;5055907;28;20394;-67
2021/11/12 08:53:14;;;;;;;11.88;6.93;;;;;;;-144.43;100.00;64487.81;5057829;28;20032;-67
2021/11/12 08:55:41;;;;;;;15.73;6.85;;;;;;;-144.43;100.00;64487.81;5055908;28;20017;-66
2021/11/12 08:58:10;;;;;;;22.45;7.32;;;;;;;-144.43;100.00;64487.81;5053612;28;20467;-66
2021/11/12 09:00:36;;;;;;;15.30;6.32;;;;;;;-144.43;100.00;64487.81;5072077;28;20054;-67
2021/11/12 09:03:02;;;;;;;17.35;7.72;;;;;;;-144.43;100.00;64487.81;5034914;28;20155;-65
2021/11/12 09:05:28;;;;;;;30.05;7.25;;;;;;;-144.43;100.00;64487.81;5052961;28;20134;-67
2021/11/12 09:07:53;;;;;;;31.98;7.07;;;;;;;-144.43;100.00;64487.81;5054361;28;20036;-68
2021/11/12 09:10:24;;;;;;;52.70;7.65;;;;;;;-144.43;100.00;64487.81;5074813;28;20046;-66
2021/11/12 09:12:58;;;;;;;21.85;7.70;;;;;;;-144.43;100.00;64487.81;5054093;28;20394;-67
2021/11/12 09:15:27;;;;;;;22.13;7.53;;;;;;;-144.43;100.00;64487.81;5055501;28;20059;-68
2021/11/12 09:17:54;;;;;;;29.88;7.88;;;;;;;-144.43;100.00;64487.81;5055997;28;20032;-68
2021/11/12 09:20:20;;;;;;;26.25;7.78;;;;;;;-144.43;100.00;64487.81;5055258;28;20032;-68
2021/11/12 09:22:46;;;;;;;14.80;7.97;;;;;;;-144.43;100.00;64487.81;5038986;28;20479;-67
2021/11/12 09:25:13;;;;;;;13.75;7.78;;;;;;;-144.43;100.00;64487.81;5055836;28;20532;-67
2021/11/12 09:27:38;;;;;;;16.38;8.38;;;;;;;-144.43;100.00;64487.81;5038918;28;20115;-68
2021/11/12 09:30:06;;;;;;;26.52;7.18;;;;;;;-144.43;100.00;64487.81;5038632;28;20117;-67
2021/11/12 09:32:32;;;;;;;12.50;7.22;;;;;;;-144.43;100.00;64487.81;5038793;28;20028;-67
2021/11/12 09:34:57;;;;;;;12.10;8.00;;;;;;;-144.43;100.00;64487.81;5055045;28;20043;-68
2021/11/12 09:37:23;;;;;;;20.95;8.98;;;;;;;-144.43;100.00;64487.81;5055113;28;20029;-68
2021/11/12 09:39:54;;;;;;;13.38;8.45;;;;;;;-144.43;100.00;64487.81;5038889;28;20036;-68
2021/11/12 09:42:31;;;;;;;11.48;7.18;;;;;;;-144.43;100.00;64487.81;5073527;28;20031;-68
2021/11/12 09:44:57;;;;;;;15.05;7.60;;;;;;;-144.43;100.00;64487.81;5055662;28;20025;-66
2021/11/12 09:47:24;;;;;;;10.50;7.40;;;;;;;-144.43;100.00;64487.81;5055439;28;20442;-66
2021/11/12 09:49:55;;;;;;;13.07;7.32;;;;;;;-144.43;100.00;64487.81;5055996;28;20067;-66
2021/11/12 09:52:23;;;;;;;16.17;7.95;;;;;;;-144.43;100.00;64487.81;5055380;28;20016;-67
2021/11/12 09:54:51;;;;;;;11.48;7.82;;;;;;;-144.43;100.00;64487.81;5055658;28;20024;-67
2021/11/12 09:57:16;;;;;;;9.85;7.80;;;;;;;-144.43;100.00;64487.81;5038600;28;20044;-66
2021/11/12 09:59:47;;;;;;;21.40;8.48;;;;;;;-144.43;100.00;64487.81;5055112;28;20154;-67
2021/11/12 10:02:14;;;;;;;10.68;7.53;;;;;;;-144.43;100.00;64487.81;5039160;28;20040;-66
2021/11/12 10:04:39;;;;;;;15.02;8.43;;;;;;;-144.43;100.00;64487.81;5071918;28;20119;-67
2021/11/12 10:07:13;;;;;;;12.40;7.80;;;;;;;-144.43;100.00;64487.81;5049877;28;20432;-67
2021/11/12 10:09:40;;;;;;;11.75;7.43;;;;;;;-144.43;100.00;64487.81;5065085;28;20028;-67
2021/11/12 10:12:07;;;;;;;16.40;7.95;;;;;;;-144.43;100.00;64487.81;5041649;28;20101;-68
2021/11/12 10:14:41;;;;;;;12.98;8.27;;;;;;;-144.43;100.00;64487.81;5059339;28;20027;-67
2021/11/12 10:17:09;;;;;;;11.90;7.47;;;;;;;-144.43;100.00;64487.81;5048320;28;20068;-67
2021/11/12 10:19:46;;;;;;;12.32;8.00;;;;;;;-144.43;100.00;64487.81;5049468;28;20042;-67
2021/11/12 10:22:12;;;;;;;18.67;7.72;;;;;;;-144.43;100.00;64487.81;5049243;28;20028;-67
2021/11/12 10:24:43;;;;;;;11.32;7.80;;;;;;;-144.43;100.00;64487.81;5052983;28;20031;-65
2021/11/12 10:27:32;;;;;;;12.95;7.60;;;;;;;-144.43;100.00;64487.81;5065249;28;20521;-68
2021/11/12 10:30:00;;;;;;;16.40;8.13;;;;;;;-144.43;100.00;64487.81;5049972;28;20474;-67
2021/11/12 10:32:36;;;;;;;15.02;8.77;;;;;;;-144.43;100.00;64487.81;5048165;28;20613;-67
2021/11/12 10:35:18;;;;;;;11.93;8.77;;;;;;;-144.43;100.00;64487.81;5062886;28;20467;-68
2021/11/12 10:37:43;;;;;;;12.73;8.10;;;;;;;-144.43;100.00;64487.81;5033012;28;20035;-68
2021/11/12 10:40:23;;;;;;;14.10;8.85;;;;;;;-144.43;100.00;64487.81;5050086;28;20029;-67
2021/11/12 10:42:58;;;;;;;12.30;7.82;;;;;;;-144.43;100.00;64487.81;5049447;28;20052;-67
2021/11/12 10:45:28;;;;;;;11.32;8.10;;;;;;;-144.43;100.00;64487.81;5028629;28;20024;-67
2021/11/12 10:47:59;;;;;;;12.65;9.02;;;;;;;-144.43;100.00;64487.81;5047621;28;20069;-68
2021/11/12 10:50:30;;;;;;;12.13;8.40;;;;;;;-144.43;100.00;64487.81;5048653;28;20034;-67
2021/11/12 10:52:58;;;;;;;12.73;7.95;;;;;;;-144.43;100.00;64487.81;5033705;28;20016;-68
2021/11/12 10:55:25;;;;;;;11.50;8.73;;;;;;;-144.43;100.00;64487.81;5052481;28;20021;-67
2021/11/12 10:57:53;;;;;;;13.48;8.70;;;;;;;-144.43;100.00;64487.81;5053250;28;20036;-67
2021/11/12 11:00:22;;;;;;;12.32;8.80;;;;;;;-144.43;100.00;64487.81;5070868;28;20016;-67
2021/11/12 11:02:56;;;;;;;14.02;9.82;;;;;;;-144.43;100.00;64487.81;5070969;28;20491;-67
2021/11/12 11:05:24;;;;;;;12.73;9.38;;;;;;;-144.43;100.00;64487.81;5070318;28;20024;-67
2021/11/12 11:08:01;;;;;;;16.50;10.32;;;;;;;-144.43;100.00;64487.81;5053362;28;20051;-68
2021/11/12 11:10:36;;;;;;;16.42;10.13;;;;;;;-144.43;100.00;64487.81;5049086;28;20086;-67
2021/11/12 11:16:29;;;;;;;13.13;9.25;;;;;;;-144.43;100.00;64487.81;5048733;28;20561;-68
2021/11/12 11:18:55;;;;;;;12.95;9.23;;;;;;;-144.43;100.00;64487.81;5050979;28;20443;-67
2021/11/12 11:24:00;;;;;;;13.18;9.43;;;;;;;-144.43;100.00;64487.81;5074501;28;20029;-67
2021/11/12 11:26:49;;;;;;;14.60;9.73;;;;;;;-144.43;100.00;64487.81;5053107;28;20017;-67
2021/11/12 11:29:16;;;;;;;15.45;9.52;;;;;;;-144.43;100.00;64487.81;5056307;28;20111;-65
2021/11/12 11:31:42;;;;;;;13.95;9.52;;;;;;;-144.43;100.00;64487.81;5071921;28;20024;-67
2021/11/12 11:34:09;;;;;;;20.45;9.70;;;;;;;-144.43;100.00;64487.81;5058535;28;20024;-66
2021/11/12 11:36:36;;;;;;;22.42;10.10;;;;;;;-144.43;100.00;64487.81;5074198;28;20025;-67
2021/11/12 11:39:08;;;;;;;16.05;9.65;;;;;;;-144.43;100.00;64487.81;5056678;28;20017;-67
2021/11/12 11:41:34;;;;;;;16.13;8.93;;;;;;;-144.43;100.00;64487.81;5067159;28;20501;-67
2021/11/12 11:43:59;;;;;;;16.90;10.77;;;;;;;-144.43;100.00;64487.81;5094207;28;20036;-67
2021/11/12 11:46:26;;;;;;;15.98;9.50;;;;;;;-144.43;100.00;64487.81;5075859;28;20427;-67
2021/11/12 11:48:53;;;;;;;16.05;10.32;;;;;;;-144.43;100.00;64487.81;5059248;28;20115;-67
2021/11/12 11:51:27;;;;;;;18.05;11.00;;;;;;;-144.43;100.00;64487.81;5094249;28;20028;-67
2021/11/12 11:53:53;;;;;;;16.85;10.80;;;;;;;-144.43;100.00;64487.81;5059223;28;20066;-67
2021/11/12 11:56:32;;;;;;;17.50;10.85;;;;;;;-144.43;100.00;64487.81;5075763;28;20020;-67
2021/11/12 11:58:59;;;;;;;16.33;10.43;;;;;;;-144.43;100.00;64487.81;5059213;28;20024;-67
2021/11/12 12:01:50;;;;;;;16.08;10.80;;;;;;;-144.43;100.00;64487.81;5094060;28;20020;-67
2021/11/12 12:04:16;;;;;;;17.17;10.35;;;;;;;-144.43;100.00;64487.81;5081275;22;20048;-66
2021/11/12 12:07:03;;;;;;;15.30;10.75;;;;;;;-144.43;100.00;64487.81;5053426;28;20033;-66
2021/11/12 12:09:51;;;;;;;16.65;10.88;;;;;;;-144.43;100.00;64487.81;5040153;28;20022;-65
2021/11/12 12:12:33;;;;;;;17.20;11.43;;;;;;;-144.43;100.00;64487.81;5048843;28;20036;-65
2021/11/12 12:15:20;;;;;;;18.08;11.60;;;;;;;-144.43;100.00;64487.81;5027750;28;20038;-65
2021/11/12 12:18:09;;;;;;;15.68;10.77;;;;;;;-144.43;100.00;64487.81;5024674;28;20443;-64
2021/11/12 13:25:07;;;;;;;22.70;15.00;;;;;;;5.18;100.00;94879.44;5012110;28;20412;-66
2021/11/12 13:27:32;;;;;;;27.98;14.43;;;;;;;5.22;100.00;94886.72;5012473;28;20033;-65
2021/11/12 13:29:58;;;;;;;24.63;14.35;;;;;;;5.27;100.00;94898.47;5013837;28;20494;-65
2021/11/12 13:32:23;;;;;;;20.77;14.35;;;;;;;5.27;100.00;94903.78;5011941;28;20022;-65
2021/11/12 13:34:49;;;;;;;23.50;14.73;;;;;;;5.21;100.00;94902.88;5011158;28;20052;-66
2021/11/12 13:37:19;;;;;;;24.00;15.15;;;;;;;5.21;100.00;94916.16;5011929;28;20022;-66
2021/11/12 13:39:45;;;;;;;23.42;15.38;;;;;;;5.13;100.00;94912.00;4996047;28;20033;-66
2021/11/12 13:42:11;;;;;;;25.35;15.10;;;;;;;5.14;100.00;94920.78;4995088;28;20079;-66
2021/11/12 13:44:38;;;;;;;23.67;16.30;;;;;;;5.19;100.00;94926.19;5011535;28;20080;-65
2021/11/12 13:47:10;;;;;;;23.73;14.25;;;;;;;5.19;100.00;94928.84;5011900;28;20389;-66
2021/11/12 13:49:49;;;;;;;23.77;16.20;;;;;;;5.22;100.00;94934.50;5028190;28;20026;-66
2021/11/12 13:52:28;;;;;;;22.65;15.23;;;;;;;5.17;100.00;94929.06;5028235;28;20192;-66
2021/11/12 13:55:01;;;;;;;26.17;15.80;;;;;;;5.15;100.00;94936.47;5011631;28;20080;-66
2021/11/12 13:57:27;;;;;;;22.25;15.65;;;;;;;5.14;100.00;94934.84;5014761;28;20030;-65
2021/11/12 14:00:10;;;;;;;23.55;15.18;;;;;;;5.06;100.00;94939.72;5032609;28;20476;-66
2021/11/12 14:02:53;;;;;;;;;;;;;;;4.99;100.00;94937.19;5014994;28;20028;-66
2021/11/12 14:05:19;;;;;;;24.52;15.45;;;;;;;4.99;100.00;94931.06;5031359;28;19921;-66
2021/11/12 14:07:45;;;;;;;26.88;16.17;;;;;;;5.01;100.00;94927.16;5031057;28;20032;-66
2021/11/12 14:10:13;;;;;;;26.13;15.70;;;;;;;5.05;100.00;94932.81;5031210;28;20131;-66
2021/11/12 14:12:57;;;;;;;24.30;16.65;;;;;;;5.07;100.00;94934.16;5014663;28;20040;-66
2021/11/12 14:15:35;;;;;;;24.00;16.52;;;;;;;5.05;100.00;94933.59;5032218;28;20032;-65
2021/11/12 14:18:29;;;;;;;26.35;17.08;;;;;;;5.07;100.00;94920.91;5032293;28;20029;-66
2021/11/12 14:27:10;;;;;;;28.90;16.98;;;;;;;5.01;100.00;94931.66;4943440;29;20090;-66
2021/11/12 14:43:53;;;;;;;29.15;17.27;;;;;;;4.85;100.00;94926.00;4986904;28;20062;-65
2021/11/12 14:46:33;;;;;;;26.92;17.10;;;;;;;4.81;100.00;94927.53;5012226;28;20121;-66
2021/11/12 14:54:39;;;;;;;26.95;16.70;;;;;;;4.66;100.00;94935.13;5021557;28;20026;-63
2021/11/12 14:59:47;;;;;;;25.13;15.85;;;;;;;4.56;100.00;94932.28;5028318;28;20379;-64
2021/11/12 15:02:12;;;;;;;36.70;16.48;;;;;;;4.50;100.00;94941.94;5018137;28;20112;-66
2021/11/12 15:04:38;;;;;;;31.98;15.27;;;;;;;4.44;100.00;94934.91;5035608;28;20136;-66
2021/11/12 15:07:03;;;;;;;30.42;17.25;;;;;;;4.41;100.00;94931.91;5034413;28;20029;-67
2021/11/12 15:09:34;;;;;;;25.83;15.45;;;;;;;4.38;100.00;94937.69;5035786;28;20056;-66
2021/11/12 15:12:02;;;;;;;23.60;15.50;;;;;;;4.37;100.00;94926.28;5018699;28;20024;-66
2021/11/12 15:14:29;;;;;;;30.85;16.88;;;;;;;4.41;100.00;94926.63;5035414;28;20021;-66
2021/11/12 15:16:55;;;;;;;26.58;16.15;;;;;;;4.41;100.00;94939.88;5035398;28;20075;-66
2021/11/12 15:19:24;;;;;;;27.25;15.95;;;;;;;4.42;100.00;94933.53;5018017;28;20060;-67
2021/11/12 15:22:04;;;;;;;25.48;15.88;;;;;;;4.39;100.00;94934.81;5035602;28;20033;-66
2021/11/12 15:30:08;;;;;;;37.90;14.68;;;;;;;4.20;100.00;94922.66;5022745;28;20033;-66
2021/11/12 15:32:36;;;;;;;38.53;15.10;;;;;;;4.16;100.00;94934.78;5018218;28;20420;-66
2021/11/12 15:35:07;;;;;;;26.70;15.07;;;;;;;4.10;100.00;94948.94;5014204;28;20026;-66
2021/11/12 15:48:18;;;;;;;49.45;14.18;;;;;;;3.81;100.00;94951.41;5035148;28;20034;-66
2021/11/12 15:56:25;;;;;;;30.83;14.23;;;;;;;3.71;100.00;94951.16;5017605;28;20034;-66
2021/11/12 16:12:20;;;;;;;39.65;11.38;;;;;;;3.33;100.00;94973.41;5034714;28;20144;-66
2021/11/12 16:14:56;;;;;;;39.83;13.40;;;;;;;3.32;100.00;94969.16;5020417;28;20035;-66
2021/11/12 16:27:27;;;;;;;57.83;10.93;;;;;;;3.29;100.00;94998.72;5009097;28;20481;-64
2021/11/12 16:29:56;;;;;;;23.48;12.57;;;;;;;3.30;100.00;95008.28;4988282;28;20041;-62
2021/11/12 16:32:27;;;;;;;41.13;14.23;;;;;;;3.32;100.00;95016.81;5010285;28;20105;-66
2021/11/12 16:35:00;;;;;;;38.20;13.73;;;;;;;3.37;100.00;95024.09;5010606;28;20022;-67
2021/11/12 16:37:27;;;;;;;36.05;13.07;;;;;;;3.36;100.00;95031.19;5015390;28;20037;-65
2021/11/12 16:45:03;;;;;;;44.13;12.95;;;;;;;3.33;100.00;95034.31;5040198;28;20083;-66
2021/11/12 16:47:38;;;;;;;47.08;14.02;;;;;;;3.33;100.00;95031.66;5035646;28;20032;-64
2021/11/12 16:50:21;;;;;;;40.67;12.73;;;;;;;3.33;100.00;95034.31;5029120;28;20041;-64
